createdAt,value
2018-09-26T00:00:31.277Z,0.00
2018-09-26T00:01:31.272Z,0.00
2018-09-26T00:02:31.262Z,0.00
2018-09-26T00:03:31.256Z,0.00
2018-09-26T00:04:31.246Z,0.00
2018-09-26T00:05:31.246Z,0.00
2018-09-26T00:06:31.230Z,0.00
2018-09-26T00:07:31.228Z,0.00
2018-09-26T00:08:31.214Z,0.00
2018-09-26T00:09:31.210Z,0.00
2018-09-26T00:10:31.203Z,0.00
2018-09-26T00:11:31.195Z,0.00
2018-09-26T00:12:31.189Z,0.00
2018-09-26T00:13:31.180Z,0.00
2018-09-26T00:14:31.735Z,0.00
2018-09-26T00:15:31.166Z,0.00
2018-09-26T00:16:31.157Z,0.00
2018-09-26T00:17:31.152Z,0.00
2018-09-26T00:18:31.148Z,0.00
2018-09-26T00:19:31.138Z,0.00
2018-09-26T00:20:31.135Z,0.00
2018-09-26T00:21:31.121Z,0.00
2018-09-26T00:22:31.116Z,0.00
2018-09-26T00:23:31.106Z,0.00
2018-09-26T00:24:31.098Z,0.00
2018-09-26T00:25:31.092Z,0.00
2018-09-26T00:26:31.083Z,0.00
2018-09-26T00:27:31.075Z,0.00
2018-09-26T00:28:31.068Z,0.00
2018-09-26T00:29:31.063Z,0.00
2018-09-26T00:30:31.061Z,0.00
2018-09-26T00:31:31.047Z,0.00
2018-09-26T00:32:31.038Z,0.00
2018-09-26T00:33:31.035Z,0.00
2018-09-26T00:34:31.027Z,0.00
2018-09-26T00:35:31.017Z,0.00
2018-09-26T00:36:31.007Z,0.00
2018-09-26T00:37:31.003Z,0.00
2018-09-26T00:38:30.998Z,0.00
2018-09-26T00:39:30.988Z,0.00
2018-09-26T00:40:30.977Z,0.00
2018-09-26T00:41:30.970Z,0.00
2018-09-26T00:42:30.961Z,0.00
2018-09-26T00:43:30.961Z,0.00
2018-09-26T00:44:30.948Z,0.00
2018-09-26T00:45:30.941Z,0.00
2018-09-26T00:46:30.935Z,0.00
2018-09-26T00:47:30.927Z,0.00
2018-09-26T00:48:30.928Z,0.00
2018-09-26T00:49:30.913Z,0.00
2018-09-26T00:50:30.903Z,0.00
2018-09-26T00:51:30.899Z,0.00
2018-09-26T00:52:30.895Z,0.00
2018-09-26T00:53:30.880Z,0.00
2018-09-26T00:54:30.872Z,0.00
2018-09-26T00:55:30.873Z,0.00
2018-09-26T00:56:30.857Z,0.00
2018-09-26T00:57:30.851Z,0.00
2018-09-26T00:58:30.843Z,0.00
2018-09-26T00:59:30.838Z,0.00
2018-09-26T01:00:30.826Z,0.00
2018-09-26T01:01:30.820Z,0.00
2018-09-26T01:02:30.812Z,0.00
2018-09-26T01:03:30.807Z,0.00
2018-09-26T01:04:30.806Z,0.00
2018-09-26T01:05:30.789Z,0.00
2018-09-26T01:06:30.782Z,0.00
2018-09-26T01:07:30.775Z,0.00
2018-09-26T01:08:30.766Z,0.00
2018-09-26T01:09:30.762Z,0.00
2018-09-26T01:10:30.752Z,0.00
2018-09-26T01:11:30.749Z,0.00
2018-09-26T01:12:30.735Z,0.00
2018-09-26T01:13:30.729Z,0.00
2018-09-26T01:14:30.726Z,0.00
2018-09-26T01:15:30.720Z,0.00
2018-09-26T01:16:30.706Z,0.00
2018-09-26T01:17:30.697Z,0.00
2018-09-26T01:18:30.692Z,0.00
2018-09-26T01:19:30.685Z,0.00
2018-09-26T01:20:30.677Z,0.00
2018-09-26T01:21:30.667Z,0.00
2018-09-26T01:22:30.661Z,0.00
2018-09-26T01:23:30.653Z,0.00
2018-09-26T01:24:30.644Z,0.00
2018-09-26T01:25:30.643Z,0.00
2018-09-26T01:26:30.630Z,0.00
2018-09-26T01:27:30.624Z,0.00
2018-09-26T01:28:30.616Z,0.00
2018-09-26T01:29:30.609Z,0.00
2018-09-26T01:30:30.600Z,0.00
2018-09-26T01:31:30.592Z,0.00
2018-09-26T01:32:30.583Z,0.00
2018-09-26T01:33:30.579Z,0.00
2018-09-26T01:34:30.572Z,0.00
2018-09-26T01:35:30.564Z,0.00
2018-09-26T01:36:30.570Z,0.00
2018-09-26T01:37:30.543Z,0.00
2018-09-26T01:38:30.542Z,0.00
2018-09-26T01:39:30.532Z,0.00
2018-09-26T01:40:30.523Z,0.00
2018-09-26T01:41:30.544Z,0.00
2018-09-26T01:42:30.509Z,0.00
2018-09-26T01:43:30.502Z,0.00
2018-09-26T01:44:30.494Z,0.00
2018-09-26T01:45:30.485Z,0.00
2018-09-26T01:46:30.478Z,0.00
2018-09-26T01:47:30.473Z,0.00
2018-09-26T01:48:30.461Z,0.00
2018-09-26T01:49:30.460Z,0.00
2018-09-26T01:50:31.255Z,0.00
2018-09-26T01:51:30.444Z,0.00
2018-09-26T01:52:30.432Z,0.00
2018-09-26T01:53:30.425Z,0.00
2018-09-26T01:54:30.418Z,0.00
2018-09-26T01:55:30.413Z,0.00
2018-09-26T01:56:30.404Z,0.00
2018-09-26T01:57:30.399Z,0.00
2018-09-26T01:58:30.386Z,0.00
2018-09-26T01:59:30.378Z,0.00
2018-09-26T02:00:30.372Z,0.00
2018-09-26T02:01:30.365Z,0.00
2018-09-26T02:02:30.359Z,0.00
2018-09-26T02:03:30.357Z,0.00
2018-09-26T02:04:30.340Z,0.00
2018-09-26T02:05:30.334Z,0.00
2018-09-26T02:06:30.326Z,0.00
2018-09-26T02:07:30.322Z,0.00
2018-09-26T02:08:30.310Z,0.00
2018-09-26T02:09:30.304Z,0.00
2018-09-26T02:10:30.298Z,0.00
2018-09-26T02:11:30.290Z,0.00
2018-09-26T02:12:30.279Z,0.00
2018-09-26T02:13:30.273Z,0.00
2018-09-26T02:14:30.265Z,0.00
2018-09-26T02:15:30.261Z,0.00
2018-09-26T02:16:30.246Z,0.00
2018-09-26T02:17:30.244Z,0.00
2018-09-26T02:18:30.233Z,0.00
2018-09-26T02:19:30.227Z,0.00
2018-09-26T02:20:30.221Z,0.00
2018-09-26T02:21:30.211Z,0.00
2018-09-26T02:22:30.204Z,0.00
2018-09-26T02:23:30.213Z,0.00
2018-09-26T02:24:30.200Z,0.00
2018-09-26T02:25:30.181Z,0.00
2018-09-26T02:26:30.174Z,0.00
2018-09-26T02:27:30.166Z,0.00
2018-09-26T02:28:30.155Z,0.00
2018-09-26T02:29:30.150Z,0.00
2018-09-26T02:30:30.141Z,0.00
2018-09-26T02:31:30.136Z,0.00
2018-09-26T02:32:30.126Z,0.00
2018-09-26T02:33:30.124Z,0.00
2018-09-26T02:34:30.112Z,0.00
2018-09-26T02:35:30.105Z,0.00
2018-09-26T02:36:30.098Z,0.00
2018-09-26T02:37:30.087Z,0.00
2018-09-26T02:38:30.080Z,0.00
2018-09-26T02:39:30.075Z,0.00
2018-09-26T02:40:30.067Z,0.00
2018-09-26T02:41:30.058Z,0.00
2018-09-26T02:42:30.053Z,0.00
2018-09-26T02:43:30.041Z,0.00
2018-09-26T02:44:30.033Z,0.00
2018-09-26T02:45:30.028Z,0.00
2018-09-26T02:46:30.022Z,0.00
2018-09-26T02:47:30.018Z,0.00
2018-09-26T02:48:30.008Z,0.00
2018-09-26T02:49:29.998Z,0.00
2018-09-26T02:50:29.991Z,0.00
2018-09-26T02:51:29.978Z,0.00
2018-09-26T02:52:29.973Z,0.00
2018-09-26T02:53:29.965Z,0.00
2018-09-26T02:54:29.955Z,0.00
2018-09-26T02:55:29.949Z,0.00
2018-09-26T02:56:29.942Z,0.00
2018-09-26T02:57:29.933Z,0.00
2018-09-26T02:58:29.927Z,0.00
2018-09-26T02:59:29.934Z,0.00
2018-09-26T03:00:29.911Z,0.00
2018-09-26T03:01:29.907Z,0.00
2018-09-26T03:02:29.899Z,0.00
2018-09-26T03:03:29.890Z,0.00
2018-09-26T03:04:29.881Z,0.00
2018-09-26T03:05:29.971Z,0.00
2018-09-26T03:06:29.868Z,0.00
2018-09-26T03:07:29.861Z,0.00
2018-09-26T03:08:29.849Z,0.00
2018-09-26T03:09:29.845Z,0.00
2018-09-26T03:10:29.834Z,0.00
2018-09-26T03:11:29.827Z,0.00
2018-09-26T03:12:29.819Z,0.00
2018-09-26T03:13:29.811Z,0.00
2018-09-26T03:14:29.803Z,0.00
2018-09-26T03:15:29.793Z,0.00
2018-09-26T03:16:29.789Z,0.00
2018-09-26T03:17:29.828Z,0.00
2018-09-26T03:18:29.772Z,0.00
2018-09-26T03:19:29.771Z,0.00
2018-09-26T03:20:29.757Z,0.00
2018-09-26T03:21:29.753Z,0.00
2018-09-26T03:22:29.742Z,0.00
2018-09-26T03:23:29.738Z,0.00
2018-09-26T03:24:29.723Z,0.00
2018-09-26T03:25:29.718Z,0.00
2018-09-26T03:26:29.707Z,0.00
2018-09-26T03:27:29.702Z,0.00
2018-09-26T03:28:29.696Z,0.00
2018-09-26T03:29:29.691Z,0.00
2018-09-26T03:30:29.681Z,0.00
2018-09-26T03:31:29.671Z,0.00
2018-09-26T03:32:29.665Z,0.00
2018-09-26T03:33:29.665Z,0.00
2018-09-26T03:34:29.651Z,0.00
2018-09-26T03:35:29.646Z,0.00
2018-09-26T03:36:29.635Z,0.00
2018-09-26T03:37:29.625Z,0.00
2018-09-26T03:38:29.614Z,0.00
2018-09-26T03:39:29.612Z,0.00
2018-09-26T03:40:29.602Z,0.00
2018-09-26T03:41:29.594Z,0.00
2018-09-26T03:42:29.587Z,0.00
2018-09-26T03:43:29.580Z,0.00
2018-09-26T03:44:29.571Z,0.00
2018-09-26T03:45:29.570Z,0.00
2018-09-26T03:46:29.555Z,0.00
2018-09-26T03:47:29.548Z,0.00
2018-09-26T03:48:29.545Z,0.00
2018-09-26T03:49:29.535Z,0.00
2018-09-26T03:50:29.534Z,0.00
2018-09-26T03:51:29.517Z,0.00
2018-09-26T03:52:29.511Z,0.00
2018-09-26T03:53:29.512Z,0.00
2018-09-26T03:54:29.495Z,0.00
2018-09-26T03:55:29.497Z,0.00
2018-09-26T03:56:29.485Z,0.00
2018-09-26T03:57:29.475Z,0.00
2018-09-26T03:58:29.469Z,0.00
2018-09-26T03:59:29.458Z,0.00
2018-09-26T04:00:29.449Z,0.00
2018-09-26T04:01:29.444Z,0.00
2018-09-26T04:02:29.432Z,0.00
2018-09-26T04:03:29.430Z,0.00
2018-09-26T04:04:29.420Z,0.00
2018-09-26T04:05:29.411Z,0.00
2018-09-26T04:06:29.410Z,0.00
2018-09-26T04:07:29.398Z,0.00
2018-09-26T04:08:29.392Z,0.00
2018-09-26T04:09:29.382Z,0.00
2018-09-26T04:10:29.375Z,0.00
2018-09-26T04:11:29.369Z,0.00
2018-09-26T04:12:29.428Z,0.00
2018-09-26T04:13:29.352Z,0.00
2018-09-26T04:14:29.343Z,0.00
2018-09-26T04:15:29.343Z,0.00
2018-09-26T04:16:29.331Z,0.00
2018-09-26T04:17:29.326Z,0.00
2018-09-26T04:18:29.317Z,0.00
2018-09-26T04:19:29.311Z,0.00
2018-09-26T04:20:29.335Z,0.00
2018-09-26T04:21:29.292Z,0.00
2018-09-26T04:22:29.285Z,0.00
2018-09-26T04:23:29.277Z,0.00
2018-09-26T04:24:29.272Z,0.00
2018-09-26T04:25:29.261Z,0.00
2018-09-26T04:26:29.405Z,0.00
2018-09-26T04:27:29.347Z,0.00
2018-09-26T04:28:29.238Z,0.00
2018-09-26T04:29:29.229Z,0.00
2018-09-26T04:30:29.287Z,0.00
2018-09-26T04:31:29.217Z,4.00
2018-09-26T04:32:29.306Z,4.00
2018-09-26T04:33:29.283Z,0.00
2018-09-26T04:34:29.206Z,4.00
2018-09-26T04:35:29.185Z,4.00
2018-09-26T04:36:29.178Z,8.00
2018-09-26T04:37:29.172Z,4.00
2018-09-26T04:38:29.225Z,4.00
2018-09-26T04:39:29.160Z,8.00
2018-09-26T04:40:29.147Z,12.00
2018-09-26T04:41:29.144Z,12.00
2018-09-26T04:42:29.137Z,12.00
2018-09-26T04:43:29.155Z,16.00
2018-09-26T04:44:29.117Z,20.00
2018-09-26T04:45:29.109Z,20.00
2018-09-26T04:46:29.102Z,28.00
2018-09-26T04:47:29.096Z,32.00
2018-09-26T04:48:29.087Z,32.00
2018-09-26T04:49:29.079Z,36.00
2018-09-26T04:50:29.073Z,44.00
2018-09-26T04:51:29.066Z,48.00
2018-09-26T04:52:29.061Z,56.00
2018-09-26T04:53:29.050Z,60.00
2018-09-26T04:54:29.046Z,64.00
2018-09-26T04:55:29.042Z,72.00
2018-09-26T04:56:29.029Z,80.00
2018-09-26T04:57:29.019Z,92.00
2018-09-26T04:58:29.013Z,104.00
2018-09-26T04:59:29.004Z,116.00
2018-09-26T05:00:28.997Z,128.00
2018-09-26T05:01:28.989Z,140.00
2018-09-26T05:02:28.983Z,152.00
2018-09-26T05:03:28.976Z,168.00
2018-09-26T05:04:28.969Z,188.00
2018-09-26T05:05:28.961Z,208.00
2018-09-26T05:06:28.953Z,232.00
2018-09-26T05:07:28.945Z,260.00
2018-09-26T05:08:28.936Z,284.00
2018-09-26T05:09:28.931Z,312.00
2018-09-26T05:10:28.922Z,340.00
2018-09-26T05:11:28.916Z,364.00
2018-09-26T05:12:28.907Z,400.00
2018-09-26T05:13:28.899Z,428.00
2018-09-26T05:14:28.892Z,468.00
2018-09-26T05:15:28.890Z,504.00
2018-09-26T05:16:28.881Z,536.00
2018-09-26T05:17:28.871Z,572.00
2018-09-26T05:18:28.863Z,612.00
2018-09-26T05:19:28.856Z,652.00
2018-09-26T05:20:28.849Z,688.00
2018-09-26T05:21:28.841Z,728.00
2018-09-26T05:22:28.835Z,772.00
2018-09-26T05:23:28.826Z,812.00
2018-09-26T05:24:28.817Z,856.00
2018-09-26T05:25:28.809Z,908.00
2018-09-26T05:26:28.804Z,964.00
2018-09-26T05:27:28.796Z,1020.00
2018-09-26T05:28:28.787Z,1080.00
2018-09-26T05:29:28.781Z,1136.00
2018-09-26T05:30:28.803Z,1192.00
2018-09-26T05:31:28.767Z,1244.00
2018-09-26T05:32:28.760Z,1296.00
2018-09-26T05:33:28.756Z,1348.00
2018-09-26T05:34:28.747Z,1404.00
2018-09-26T05:35:28.744Z,1472.00
2018-09-26T05:36:28.729Z,1548.00
2018-09-26T05:37:28.726Z,1628.00
2018-09-26T05:38:28.716Z,1708.00
2018-09-26T05:39:28.710Z,1776.00
2018-09-26T05:40:28.704Z,1824.00
2018-09-26T05:41:28.696Z,1864.00
2018-09-26T05:42:28.686Z,1892.00
2018-09-26T05:43:28.685Z,1912.00
2018-09-26T05:44:28.671Z,1924.00
2018-09-26T05:45:28.667Z,1948.00
2018-09-26T05:46:29.372Z,1996.00
2018-09-26T05:47:28.653Z,2064.00
2018-09-26T05:48:28.646Z,2140.00
2018-09-26T05:49:28.639Z,2236.00
2018-09-26T05:50:28.635Z,2356.00
2018-09-26T05:51:28.628Z,2532.00
2018-09-26T05:52:28.616Z,2740.00
2018-09-26T05:53:28.634Z,2964.00
2018-09-26T05:54:28.601Z,3184.00
2018-09-26T05:55:28.596Z,3376.00
2018-09-26T05:56:28.591Z,3512.00
2018-09-26T05:57:28.584Z,3620.00
2018-09-26T05:58:28.579Z,3708.00
2018-09-26T05:59:28.579Z,3676.00
2018-09-26T06:00:28.563Z,3580.00
2018-09-26T06:01:28.560Z,3460.00
2018-09-26T06:02:28.554Z,3240.00
2018-09-26T06:03:28.545Z,3112.00
2018-09-26T06:04:28.536Z,3028.00
2018-09-26T06:05:28.536Z,2904.00
2018-09-26T06:06:28.529Z,2796.00
2018-09-26T06:07:28.518Z,2732.00
2018-09-26T06:08:28.511Z,2752.00
2018-09-26T06:09:28.505Z,2832.00
2018-09-26T06:10:28.498Z,2920.00
2018-09-26T06:11:28.496Z,2932.00
2018-09-26T06:12:28.484Z,2888.00
2018-09-26T06:13:28.480Z,2836.00
2018-09-26T06:14:28.474Z,2836.00
2018-09-26T06:15:28.468Z,2912.00
2018-09-26T06:16:28.463Z,3016.00
2018-09-26T06:17:28.454Z,3116.00
2018-09-26T06:18:28.451Z,3212.00
2018-09-26T06:19:28.444Z,3296.00
2018-09-26T06:20:28.437Z,3424.00
2018-09-26T06:21:28.434Z,3572.00
2018-09-26T06:22:28.428Z,3796.00
2018-09-26T06:23:28.421Z,3932.00
2018-09-26T06:24:28.464Z,4008.00
2018-09-26T06:25:28.410Z,4028.00
2018-09-26T06:26:28.402Z,4188.00
2018-09-26T06:27:28.399Z,4372.00
2018-09-26T06:28:28.391Z,4216.00
2018-09-26T06:29:28.387Z,4068.00
2018-09-26T06:30:28.378Z,3828.00
2018-09-26T06:31:28.373Z,3812.00
2018-09-26T06:32:28.365Z,3740.00
2018-09-26T06:33:28.359Z,3728.00
2018-09-26T06:34:28.356Z,3528.00
2018-09-26T06:35:28.346Z,3436.00
2018-09-26T06:36:28.343Z,3368.00
2018-09-26T06:37:28.341Z,3344.00
2018-09-26T06:38:28.337Z,3348.00
2018-09-26T06:39:28.330Z,3380.00
2018-09-26T06:40:28.436Z,3420.00
2018-09-26T06:41:28.318Z,3456.00
2018-09-26T06:42:28.311Z,3528.00
2018-09-26T06:43:28.304Z,3528.00
2018-09-26T06:44:28.300Z,3544.00
2018-09-26T06:45:28.292Z,3596.00
2018-09-26T06:46:28.289Z,3636.00
2018-09-26T06:47:28.317Z,3716.00
2018-09-26T06:48:28.273Z,3796.00
2018-09-26T06:49:28.270Z,3940.00
2018-09-26T06:50:28.269Z,4012.00
2018-09-26T06:51:28.265Z,3852.00
2018-09-26T06:52:28.254Z,3584.00
2018-09-26T06:53:28.248Z,3412.00
2018-09-26T06:54:28.246Z,3332.00
2018-09-26T06:55:28.238Z,3360.00
2018-09-26T06:56:28.234Z,3456.00
2018-09-26T06:57:28.227Z,3484.00
2018-09-26T06:58:28.218Z,3372.00
2018-09-26T06:59:28.215Z,3268.00
2018-09-26T07:00:28.221Z,3296.00
2018-09-26T07:01:28.207Z,3484.00
2018-09-26T07:02:28.202Z,3772.00
2018-09-26T07:03:28.197Z,4068.00
2018-09-26T07:04:28.192Z,4184.00
2018-09-26T07:05:28.187Z,4200.00
2018-09-26T07:06:28.182Z,4360.00
2018-09-26T07:07:28.174Z,4552.00
2018-09-26T07:08:28.162Z,4584.00
2018-09-26T07:09:28.162Z,4632.00
2018-09-26T07:10:28.165Z,4832.00
2018-09-26T07:11:28.158Z,4932.00
2018-09-26T07:12:28.145Z,5156.00
2018-09-26T07:13:28.145Z,5604.00
2018-09-26T07:14:28.143Z,5876.00
2018-09-26T07:15:28.134Z,6088.00
2018-09-26T07:16:28.128Z,6324.00
2018-09-26T07:17:28.122Z,6536.00
2018-09-26T07:18:28.118Z,6780.00
2018-09-26T07:19:28.115Z,6832.00
2018-09-26T07:20:28.107Z,6764.00
2018-09-26T07:21:28.103Z,6540.00
2018-09-26T07:22:28.100Z,6356.00
2018-09-26T07:23:28.093Z,6020.00
2018-09-26T07:24:28.089Z,5720.00
2018-09-26T07:25:28.083Z,5568.00
2018-09-26T07:26:28.080Z,5676.00
2018-09-26T07:27:28.080Z,5936.00
2018-09-26T07:28:28.073Z,6348.00
2018-09-26T07:29:28.071Z,6784.00
2018-09-26T07:30:28.061Z,7052.00
2018-09-26T07:31:28.078Z,7080.00
2018-09-26T07:32:28.049Z,6876.00
2018-09-26T07:33:28.048Z,6488.00
2018-09-26T07:34:28.042Z,6040.00
2018-09-26T07:35:28.041Z,5616.00
2018-09-26T07:36:28.034Z,5512.00
2018-09-26T07:37:28.028Z,5468.00
2018-09-26T07:38:28.042Z,5612.00
2018-09-26T07:39:28.016Z,5792.00
2018-09-26T07:40:28.015Z,5944.00
2018-09-26T07:41:28.013Z,6008.00
2018-09-26T07:42:28.009Z,6168.00
2018-09-26T07:43:28.001Z,6320.00
2018-09-26T07:44:27.998Z,6580.00
2018-09-26T07:45:28.030Z,6992.00
2018-09-26T07:46:27.993Z,7396.00
2018-09-26T07:47:27.988Z,7772.00
2018-09-26T07:48:27.980Z,7976.00
2018-09-26T07:49:27.980Z,7940.00
2018-09-26T07:50:27.973Z,7812.00
2018-09-26T07:51:27.974Z,7712.00
2018-09-26T07:52:27.965Z,7484.00
2018-09-26T07:53:27.960Z,7180.00
2018-09-26T07:54:27.959Z,7068.00
2018-09-26T07:55:27.952Z,7084.00
2018-09-26T07:56:27.953Z,7056.00
2018-09-26T07:57:27.946Z,6888.00
2018-09-26T07:58:27.941Z,6668.00
2018-09-26T07:59:27.939Z,6404.00
2018-09-26T08:00:28.845Z,6164.00
2018-09-26T08:01:27.930Z,5900.00
2018-09-26T08:02:27.931Z,5616.00
2018-09-26T08:03:27.922Z,5288.00
2018-09-26T08:04:27.919Z,4840.00
2018-09-26T08:05:27.928Z,4308.00
2018-09-26T08:06:27.912Z,3784.00
2018-09-26T08:07:27.914Z,3512.00
2018-09-26T08:08:27.908Z,3464.00
2018-09-26T08:09:27.902Z,3436.00
2018-09-26T08:10:28.832Z,3368.00
2018-09-26T08:11:27.998Z,3464.00
2018-09-26T08:12:27.890Z,3616.00
2018-09-26T08:13:27.890Z,3764.00
2018-09-26T08:14:27.884Z,3840.00
2018-09-26T08:15:27.880Z,3856.00
2018-09-26T08:16:27.876Z,3924.00
2018-09-26T08:17:27.892Z,4008.00
2018-09-26T08:18:27.897Z,4100.00
2018-09-26T08:19:27.865Z,4220.00
2018-09-26T08:20:27.869Z,4256.00
2018-09-26T08:21:27.865Z,4220.00
2018-09-26T08:22:27.858Z,4184.00
2018-09-26T08:23:27.874Z,4168.00
2018-09-26T08:24:27.847Z,4172.00
2018-09-26T08:25:27.841Z,4252.00
2018-09-26T08:26:27.840Z,4428.00
2018-09-26T08:27:27.840Z,4676.00
2018-09-26T08:28:27.832Z,5056.00
2018-09-26T08:29:28.339Z,5560.00
2018-09-26T08:30:27.827Z,6084.00
2018-09-26T08:31:27.830Z,6624.00
2018-09-26T08:32:27.820Z,7148.00
2018-09-26T08:33:27.813Z,7620.00
2018-09-26T08:34:27.812Z,8040.00
2018-09-26T08:35:27.809Z,8432.00
2018-09-26T08:36:27.803Z,8680.00
2018-09-26T08:37:27.800Z,8776.00
2018-09-26T08:38:27.794Z,8768.00
2018-09-26T08:39:27.832Z,8656.00
2018-09-26T08:40:27.790Z,8452.00
2018-09-26T08:41:27.800Z,8204.00
2018-09-26T08:42:27.784Z,8044.00
2018-09-26T08:43:27.787Z,7836.00
2018-09-26T08:44:27.780Z,7680.00
2018-09-26T08:45:27.778Z,7612.00
2018-09-26T08:46:27.774Z,7576.00
2018-09-26T08:47:27.991Z,7532.00
2018-09-26T08:48:27.764Z,7400.00
2018-09-26T08:49:27.765Z,7256.00
2018-09-26T08:50:27.762Z,7100.00
2018-09-26T08:51:27.757Z,6956.00
2018-09-26T08:52:27.755Z,6824.00
2018-09-26T08:53:27.754Z,6676.00
2018-09-26T08:54:27.751Z,6532.00
2018-09-26T08:55:27.754Z,6408.00
2018-09-26T08:56:27.744Z,6340.00
2018-09-26T08:57:27.745Z,6312.00
2018-09-26T08:58:27.741Z,6324.00
2018-09-26T08:59:27.738Z,6352.00
2018-09-26T09:00:27.736Z,6372.00
2018-09-26T09:01:27.733Z,6420.00
2018-09-26T09:02:27.731Z,6476.00
2018-09-26T09:03:27.732Z,6536.00
2018-09-26T09:04:27.795Z,6544.00
2018-09-26T09:05:27.723Z,6568.00
2018-09-26T09:06:27.721Z,6572.00
2018-09-26T09:07:27.719Z,6592.00
2018-09-26T09:08:27.712Z,6576.00
2018-09-26T09:09:27.718Z,6516.00
2018-09-26T09:10:27.712Z,6420.00
2018-09-26T09:11:27.738Z,6300.00
2018-09-26T09:12:27.708Z,6148.00
2018-09-26T09:13:27.703Z,5996.00
2018-09-26T09:14:27.769Z,5856.00
2018-09-26T09:15:28.451Z,5716.00
2018-09-26T09:16:27.696Z,5588.00
2018-09-26T09:17:27.695Z,5440.00
2018-09-26T09:18:27.693Z,5300.00
2018-09-26T09:19:27.691Z,5176.00
2018-09-26T09:20:27.686Z,5064.00
2018-09-26T09:21:27.684Z,4996.00
2018-09-26T09:22:27.681Z,4956.00
2018-09-26T09:23:27.681Z,4924.00
2018-09-26T09:24:27.680Z,4892.00
2018-09-26T09:25:27.674Z,4912.00
2018-09-26T09:26:27.671Z,4960.00
2018-09-26T09:27:27.750Z,5032.00
2018-09-26T09:28:27.680Z,5108.00
2018-09-26T09:29:27.663Z,5128.00
2018-09-26T09:30:27.662Z,5144.00
2018-09-26T09:31:27.660Z,5176.00
2018-09-26T09:32:27.657Z,5192.00
2018-09-26T09:33:27.652Z,5192.00
2018-09-26T09:34:27.651Z,5196.00
2018-09-26T09:35:28.358Z,5172.00
2018-09-26T09:36:27.705Z,5116.00
2018-09-26T09:37:27.644Z,5088.00
2018-09-26T09:38:27.641Z,5012.00
2018-09-26T09:39:27.642Z,4952.00
2018-09-26T09:40:27.637Z,4880.00
2018-09-26T09:41:27.634Z,4804.00
2018-09-26T09:42:27.632Z,4736.00
2018-09-26T09:43:27.630Z,4708.00
2018-09-26T09:44:27.675Z,4648.00
2018-09-26T09:45:27.631Z,4584.00
2018-09-26T09:46:27.625Z,4524.00
2018-09-26T09:47:27.619Z,4516.00
2018-09-26T09:48:27.622Z,4532.00
2018-09-26T09:49:27.618Z,4552.00
2018-09-26T09:50:27.619Z,4568.00
2018-09-26T09:51:27.672Z,4584.00
2018-09-26T09:52:27.615Z,4624.00
2018-09-26T09:53:27.606Z,4652.00
2018-09-26T09:54:27.611Z,4660.00
2018-09-26T09:55:27.604Z,4680.00
2018-09-26T09:56:27.604Z,4676.00
2018-09-26T09:57:27.599Z,4648.00
2018-09-26T09:58:27.597Z,4656.00
2018-09-26T09:59:27.595Z,4792.00
2018-09-26T10:00:27.598Z,4856.00
2018-09-26T10:01:27.593Z,4912.00
2018-09-26T10:02:27.690Z,4940.00
2018-09-26T10:03:27.590Z,5012.00
2018-09-26T10:04:27.584Z,5080.00
2018-09-26T10:05:27.583Z,5112.00
2018-09-26T10:06:27.640Z,5152.00
2018-09-26T10:07:27.581Z,5164.00
2018-09-26T10:08:27.576Z,5172.00
2018-09-26T10:09:27.578Z,5128.00
2018-09-26T10:10:27.724Z,5104.00
2018-09-26T10:11:27.572Z,5100.00
2018-09-26T10:12:27.573Z,5128.00
2018-09-26T10:13:27.569Z,5184.00
2018-09-26T10:14:28.430Z,5204.00
2018-09-26T10:15:27.562Z,5248.00
2018-09-26T10:16:27.630Z,5276.00
2018-09-26T10:17:27.612Z,5268.00
2018-09-26T10:18:27.559Z,5308.00
2018-09-26T10:19:27.558Z,5368.00
2018-09-26T10:20:27.557Z,5456.00
2018-09-26T10:21:27.585Z,5540.00
2018-09-26T10:22:27.551Z,5608.00
2018-09-26T10:23:27.549Z,5636.00
2018-09-26T10:24:27.545Z,5668.00
2018-09-26T10:25:27.548Z,5724.00
2018-09-26T10:26:27.549Z,5752.00
2018-09-26T10:27:27.544Z,5820.00
2018-09-26T10:28:27.544Z,5868.00
2018-09-26T10:29:27.541Z,5900.00
2018-09-26T10:30:27.541Z,5952.00
2018-09-26T10:31:27.531Z,5992.00
2018-09-26T10:32:27.534Z,6024.00
2018-09-26T10:33:27.533Z,6016.00
2018-09-26T10:34:27.531Z,6044.00
2018-09-26T10:35:27.532Z,6056.00
2018-09-26T10:36:27.529Z,6044.00
2018-09-26T10:37:27.528Z,6000.00
2018-09-26T10:38:27.527Z,5948.00
2018-09-26T10:39:27.526Z,5848.00
2018-09-26T10:40:27.523Z,5720.00
2018-09-26T10:41:27.522Z,5636.00
2018-09-26T10:42:27.521Z,5484.00
2018-09-26T10:43:27.523Z,5316.00
2018-09-26T10:44:27.515Z,5104.00
2018-09-26T10:45:27.520Z,4908.00
2018-09-26T10:46:27.543Z,4712.00
2018-09-26T10:47:27.511Z,4488.00
2018-09-26T10:48:27.519Z,4272.00
2018-09-26T10:49:27.513Z,4092.00
2018-09-26T10:50:27.543Z,4008.00
2018-09-26T10:51:27.509Z,3912.00
2018-09-26T10:52:27.508Z,3848.00
2018-09-26T10:53:27.506Z,3768.00
2018-09-26T10:54:27.507Z,3676.00
2018-09-26T10:55:27.503Z,3640.00
2018-09-26T10:56:27.525Z,3572.00
2018-09-26T10:57:27.502Z,3516.00
2018-09-26T10:58:27.498Z,3440.00
2018-09-26T10:59:27.505Z,3392.00
2018-09-26T11:00:27.497Z,3372.00
2018-09-26T11:01:27.504Z,3352.00
2018-09-26T11:02:27.547Z,3336.00
2018-09-26T11:03:27.493Z,3316.00
2018-09-26T11:04:27.493Z,3304.00
2018-09-26T11:05:27.490Z,3316.00
2018-09-26T11:06:27.493Z,3320.00
2018-09-26T11:07:27.491Z,3332.00
2018-09-26T11:08:27.486Z,3360.00
2018-09-26T11:09:27.487Z,3464.00
2018-09-26T11:10:27.555Z,3552.00
2018-09-26T11:11:27.487Z,3604.00
2018-09-26T11:12:27.526Z,3616.00
2018-09-26T11:13:27.478Z,3532.00
2018-09-26T11:14:27.573Z,3348.00
2018-09-26T11:15:27.527Z,3340.00
2018-09-26T11:16:27.568Z,3260.00
2018-09-26T11:17:27.475Z,3236.00
2018-09-26T11:18:27.471Z,3384.00
2018-09-26T11:19:27.474Z,3572.00
2018-09-26T11:20:27.473Z,3628.00
2018-09-26T11:21:27.470Z,3712.00
2018-09-26T11:22:27.463Z,3652.00
2018-09-26T11:23:27.466Z,3536.00
2018-09-26T11:24:27.463Z,3420.00
2018-09-26T11:25:27.464Z,3316.00
2018-09-26T11:26:27.517Z,3188.00
2018-09-26T11:27:27.465Z,3144.00
2018-09-26T11:28:27.540Z,3144.00
2018-09-26T11:29:27.454Z,3172.00
2018-09-26T11:30:27.463Z,3196.00
2018-09-26T11:31:27.466Z,3208.00
2018-09-26T11:32:27.570Z,3252.00
2018-09-26T11:33:27.523Z,3296.00
2018-09-26T11:34:27.525Z,3324.00
2018-09-26T11:35:27.450Z,3352.00
2018-09-26T11:36:27.452Z,3428.00
2018-09-26T11:37:27.443Z,3496.00
2018-09-26T11:38:27.499Z,3496.00
2018-09-26T11:39:27.446Z,3488.00
2018-09-26T11:40:27.444Z,3492.00
2018-09-26T11:41:27.446Z,3512.00
2018-09-26T11:42:27.440Z,3548.00
2018-09-26T11:43:28.397Z,3532.00
2018-09-26T11:44:27.465Z,3600.00
2018-09-26T11:45:27.439Z,3728.00
2018-09-26T11:46:27.446Z,3964.00
2018-09-26T11:47:27.446Z,4120.00
2018-09-26T11:48:27.434Z,4360.00
2018-09-26T11:49:27.434Z,4544.00
2018-09-26T11:50:27.433Z,4840.00
2018-09-26T11:51:27.431Z,5088.00
2018-09-26T11:52:27.489Z,5268.00
2018-09-26T11:53:27.434Z,5376.00
2018-09-26T11:54:27.428Z,5388.00
2018-09-26T11:55:27.428Z,5124.00
2018-09-26T11:56:27.452Z,5368.00
2018-09-26T11:57:27.424Z,5512.00
2018-09-26T11:58:27.629Z,5516.00
2018-09-26T11:59:27.533Z,5380.00
2018-09-26T12:00:27.975Z,5236.00
2018-09-26T12:01:27.512Z,5240.00
2018-09-26T12:02:27.592Z,5200.00
2018-09-26T12:03:27.421Z,5232.00
2018-09-26T12:04:27.419Z,5216.00
2018-09-26T12:05:27.414Z,5188.00
2018-09-26T12:06:27.418Z,5252.00
2018-09-26T12:07:27.490Z,5320.00
2018-09-26T12:08:27.544Z,5368.00
2018-09-26T12:09:27.416Z,5404.00
2018-09-26T12:10:27.411Z,5540.00
2018-09-26T12:11:27.413Z,5596.00
2018-09-26T12:12:27.414Z,5644.00
2018-09-26T12:13:27.415Z,5688.00
2018-09-26T12:14:27.411Z,5708.00
2018-09-26T12:15:27.419Z,5680.00
2018-09-26T12:16:27.417Z,5720.00
2018-09-26T12:17:27.409Z,5744.00
2018-09-26T12:18:27.451Z,5748.00
2018-09-26T12:19:27.606Z,5816.00
2018-09-26T12:20:27.409Z,5872.00
2018-09-26T12:21:30.593Z,5824.00
2018-09-26T12:22:27.464Z,5916.00
2018-09-26T12:23:27.404Z,5900.00
2018-09-26T12:24:27.407Z,5832.00
2018-09-26T12:25:27.400Z,5800.00
2018-09-26T12:26:27.404Z,5836.00
2018-09-26T12:27:27.406Z,5904.00
2018-09-26T12:28:27.552Z,5956.00
2018-09-26T12:29:27.399Z,6052.00
2018-09-26T12:30:27.456Z,6112.00
2018-09-26T12:31:27.401Z,6156.00
2018-09-26T12:32:27.403Z,6116.00
2018-09-26T12:33:27.399Z,6084.00